Time;durP1;ratioP1;P1;durP2;ratioP2;P2;SDS_P1;SDS_P2;PMS_P1;PMS_P2;Temp;Humidity;BMP_temperature;BMP_pressure;BME280_temperature;BME280_humidity;BME280_pressure;Samples;Min_cycle;Max_cycle;Signal;HPM_P1;HPM_P2
2023/12/26 14:58:57;;;;;;;11.70;2.97;;;9.20;86.10;;;;;;5009221;23;20914;-82
2023/12/26 15:01:26;;;;;;;7.47;2.13;;;9.20;85.00;;;;;;4975103;28;20450;-82
2023/12/26 15:03:53;;;;;;;17.27;2.67;;;9.20;88.00;;;;;;4972894;28;20450;-82
2023/12/26 15:06:19;;;;;;;10.67;3.57;;;9.20;85.30;;;;;;4974211;28;20470;-82
2023/12/26 15:08:46;;;;;;;13.20;2.97;;;9.30;85.10;;;;;;4975293;28;20830;-81
2023/12/26 15:11:17;;;;;;;10.97;2.30;;;9.30;85.40;;;;;;4975278;28;20934;-84
2023/12/26 15:13:43;;;;;;;6.53;2.93;;;9.30;85.10;;;;;;4972315;28;20485;-83
2023/12/26 15:16:19;;;;;;;7.60;2.50;;;9.30;85.10;;;;;;4973760;28;20457;-82
2023/12/26 15:18:46;;;;;;;9.03;2.37;;;9.30;85.00;;;;;;4975176;28;20439;-82
2023/12/26 15:21:13;;;;;;;7.50;2.40;;;9.30;85.20;;;;;;4975077;28;20473;-82
2023/12/26 15:23:41;;;;;;;9.10;2.70;;;9.30;85.10;;;;;;4973130;28;20443;-82
2023/12/26 15:26:13;;;;;;;10.13;3.13;;;9.30;87.70;;;;;;4974153;28;20457;-78
2023/12/26 15:28:40;;;;;;;8.10;2.53;;;9.30;86.70;;;;;;4975070;28;20439;-77
2023/12/26 15:31:11;;;;;;;15.40;3.10;;;9.30;88.40;;;;;;4974976;28;20461;-77
2023/12/26 15:33:42;;;;;;;17.50;3.63;;;9.30;91.10;;;;;;4972204;28;20555;-77
2023/12/26 15:36:09;;;;;;;8.57;2.70;;;9.20;90.00;;;;;;4973611;28;20937;-75
2023/12/26 15:38:36;;;;;;;8.77;2.70;;;9.20;91.10;;;;;;4975023;28;20455;-75
2023/12/26 15:41:03;;;;;;;17.80;3.20;;;9.20;91.00;;;;;;4974901;28;20457;-75
2023/12/26 15:43:29;;;;;;;10.13;3.17;;;9.10;91.00;;;;;;4972169;28;20962;-75
2023/12/26 15:45:56;;;;;;;11.23;2.93;;;9.10;91.00;;;;;;4972423;28;20454;-80
2023/12/26 15:48:23;;;;;;;8.97;2.80;;;9.10;91.00;;;;;;4974834;28;20608;-80
2023/12/26 15:50:51;;;;;;;9.30;2.73;;;9.10;91.00;;;;;;4974526;28;20956;-81
2023/12/26 15:53:18;;;;;;;11.53;3.40;;;9.10;91.00;;;;;;4972926;28;20475;-80
2023/12/26 15:55:45;;;;;;;9.90;2.93;;;9.00;91.00;;;;;;4972710;28;20533;-80
2023/12/26 15:58:12;;;;;;;18.43;5.07;;;9.10;91.40;;;;;;4974459;28;20469;-80
2023/12/26 16:00:40;;;;;;;11.70;2.43;;;9.10;91.00;;;;;;4974761;28;20447;-80
2023/12/26 16:03:07;;;;;;;8.83;2.90;;;9.10;91.00;;;;;;4972244;28;20926;-80
2023/12/26 16:05:35;;;;;;;9.40;2.33;;;9.00;91.00;;;;;;4971855;28;20451;-80
2023/12/26 16:08:04;;;;;;;11.80;3.30;;;9.10;91.00;;;;;;4978028;28;20454;-80
2023/12/26 16:10:31;;;;;;;9.60;3.30;;;9.00;91.00;;;;;;4978103;28;20557;-80
2023/12/26 16:12:58;;;;;;;13.07;3.03;;;9.00;91.00;;;;;;4976059;28;20473;-80
2023/12/26 16:15:25;;;;;;;13.67;3.17;;;9.00;91.00;;;;;;4975544;28;20443;-80
2023/12/26 16:17:52;;;;;;;13.33;3.90;;;9.00;91.00;;;;;;4978292;28;20455;-81
2023/12/26 16:20:18;;;;;;;11.33;3.47;;;9.00;91.00;;;;;;4978245;28;20451;-80
2023/12/26 16:22:45;;;;;;;12.50;3.47;;;9.00;91.00;;;;;;4976481;28;20942;-81
2023/12/26 16:25:13;;;;;;;15.60;3.53;;;9.00;91.00;;;;;;4975720;28;20450;-80
2023/12/26 16:27:40;;;;;;;13.77;5.00;;;9.00;91.00;;;;;;4978124;28;20450;-80
2023/12/26 16:30:08;;;;;;;11.07;2.67;;;9.00;90.90;;;;;;4978072;28;20450;-81
2023/12/26 16:32:35;;;;;;;7.93;2.67;;;9.00;87.70;;;;;;4976967;28;20457;-80
2023/12/26 16:35:04;;;;;;;18.60;3.70;;;9.00;87.90;;;;;;4975228;28;21115;-80
2023/12/26 16:37:30;;;;;;;10.37;3.10;;;9.00;90.90;;;;;;4977945;28;20454;-80
2023/12/26 16:39:58;;;;;;;18.53;4.10;;;9.00;91.00;;;;;;4977887;28;20461;-80
2023/12/26 16:42:26;;;;;;;17.27;3.67;;;9.00;91.00;;;;;;4976682;28;20455;-80
2023/12/26 16:44:54;;;;;;;9.80;3.30;;;9.00;91.00;;;;;;4975177;28;20451;-81
2023/12/26 16:47:21;;;;;;;10.70;3.30;;;9.00;88.50;;;;;;4977748;28;20451;-81
2023/12/26 16:49:47;;;;;;;9.23;2.80;;;9.00;91.00;;;;;;4977431;28;20466;-80
2023/12/26 16:52:14;;;;;;;9.37;3.60;;;9.00;90.80;;;;;;4974932;28;20459;-80
2023/12/26 16:54:41;;;;;;;13.80;6.23;;;9.00;91.00;;;;;;4973426;28;20514;-81
2023/12/26 16:57:07;;;;;;;21.93;3.70;;;9.00;91.00;;;;;;4977421;28;20465;-80
2023/12/26 16:59:38;;;;;;;18.17;4.13;;;9.00;91.00;;;;;;4977310;28;20941;-81
2023/12/26 17:02:05;;;;;;;18.20;3.50;;;9.00;90.90;;;;;;4976675;28;20666;-81
2023/12/26 17:04:31;;;;;;;10.77;4.53;;;9.00;90.90;;;;;;4973577;28;20457;-80
2023/12/26 17:06:58;;;;;;;22.47;3.87;;;9.00;90.90;;;;;;4976606;28;20946;-80
2023/12/26 17:09:25;;;;;;;10.23;3.13;;;9.00;90.90;;;;;;4977359;28;20461;-81
2023/12/26 17:11:52;;;;;;;10.60;3.47;;;8.90;91.00;;;;;;4976610;28;20960;-79
2023/12/26 17:14:19;;;;;;;13.03;5.03;;;8.90;90.90;;;;;;4973476;28;20500;-80
2023/12/26 17:16:47;;;;;;;22.37;3.90;;;8.90;91.00;;;;;;4976636;28;20542;-80
2023/12/26 17:19:14;;;;;;;13.83;5.37;;;8.90;90.90;;;;;;4976280;28;20987;-80
2023/12/26 17:21:41;;;;;;;16.20;5.23;;;8.90;91.00;;;;;;4976862;28;20489;-80
2023/12/26 17:24:09;;;;;;;12.27;3.90;;;8.80;90.90;;;;;;4974283;28;20494;-80
2023/12/26 17:26:38;;;;;;;14.13;3.60;;;8.90;91.00;;;;;;4976295;28;20536;-80
2023/12/26 17:29:05;;;;;;;16.70;5.63;;;8.80;90.90;;;;;;4977283;28;20502;-80
2023/12/26 17:31:31;;;;;;;14.77;3.67;;;8.90;91.30;;;;;;4976892;28;20506;-80
2023/12/26 17:34:00;;;;;;;15.37;4.50;;;8.80;90.90;;;;;;4974021;28;20501;-80
2023/12/26 17:36:27;;;;;;;16.00;4.70;;;8.80;90.90;;;;;;4975965;28;20491;-80
2023/12/26 17:38:54;;;;;;;12.80;3.80;;;8.80;90.90;;;;;;4976551;28;20453;-81
2023/12/26 17:41:21;;;;;;;14.20;3.77;;;8.80;90.90;;;;;;4976905;28;20477;-80
2023/12/26 17:43:48;;;;;;;11.77;3.23;;;8.80;90.90;;;;;;4973267;28;20443;-79
2023/12/26 17:46:15;;;;;;;11.87;4.97;;;8.70;90.90;;;;;;4974945;28;20450;-80
2023/12/26 17:48:42;;;;;;;16.57;4.00;;;8.70;90.90;;;;;;4976639;28;20455;-81
2023/12/26 17:51:10;;;;;;;10.70;3.73;;;8.80;90.90;;;;;;4976628;28;20447;-80
2023/12/26 17:53:37;;;;;;;12.90;3.83;;;8.70;90.90;;;;;;4972199;28;20475;-80
2023/12/26 17:56:04;;;;;;;7.53;3.40;;;8.70;90.90;;;;;;4973947;28;20454;-80
2023/12/26 17:58:31;;;;;;;18.87;4.33;;;8.80;90.90;;;;;;4976134;28;20462;-80
2023/12/26 18:00:58;;;;;;;15.60;4.77;;;8.70;90.90;;;;;;4976634;28;20537;-80
2023/12/26 18:03:25;;;;;;;16.87;4.33;;;8.70;90.90;;;;;;4973334;28;20451;-80
2023/12/26 18:05:52;;;;;;;14.57;5.43;;;8.70;90.90;;;;;;4974141;28;20450;-80
2023/12/26 18:08:20;;;;;;;17.40;4.30;;;8.70;90.90;;;;;;4975976;28;20454;-79
2023/12/26 18:10:46;;;;;;;13.87;4.60;;;8.70;90.90;;;;;;4976482;28;20447;-80
2023/12/26 18:13:13;;;;;;;10.90;4.93;;;8.60;90.90;;;;;;4974132;28;20466;-79
2023/12/26 18:15:40;;;;;;;13.63;4.80;;;8.60;91.10;;;;;;4974091;28;20485;-80
2023/12/26 18:18:07;;;;;;;11.57;4.30;;;8.60;90.90;;;;;;4975818;28;20455;-79
2023/12/26 18:20:34;;;;;;;15.13;4.80;;;8.50;90.90;;;;;;4976751;28;20455;-79
2023/12/26 18:23:01;;;;;;;13.77;5.77;;;8.50;91.90;;;;;;4974515;28;20459;-79
2023/12/26 18:25:29;;;;;;;15.10;4.83;;;8.50;91.60;;;;;;4973480;28;20952;-79
2023/12/26 18:27:56;;;;;;;14.40;6.33;;;8.50;92.50;;;;;;4975930;28;20462;-80
2023/12/26 18:30:23;;;;;;;9.30;6.50;;;8.50;93.80;;;;;;4976066;28;20541;-79
2023/12/26 18:32:50;;;;;;;17.73;6.83;;;8.50;94.20;;;;;;4974145;28;20450;-80
2023/12/26 18:35:17;;;;;;;12.03;7.63;;;8.50;94.20;;;;;;4973440;28;20479;-79
2023/12/26 18:37:43;;;;;;;23.33;8.93;;;8.50;94.20;;;;;;4975753;28;20450;-79
2023/12/26 18:40:13;;;;;;;13.13;11.20;;;8.40;94.30;;;;;;4975729;28;20461;-80
2023/12/26 18:42:41;;;;;;;21.77;13.27;;;8.40;95.70;;;;;;4974258;28;20472;-79
2023/12/26 18:45:09;;;;;;;16.87;15.43;;;8.40;96.80;;;;;;4973327;28;20972;-79
2023/12/26 18:47:35;;;;;;;21.87;13.97;;;8.40;97.40;;;;;;4975647;28;20450;-79
2023/12/26 18:50:03;;;;;;;24.43;10.47;;;8.40;95.80;;;;;;4975287;28;20466;-80
2023/12/26 18:52:31;;;;;;;17.10;6.93;;;8.40;94.20;;;;;;4974694;28;20458;-80
2023/12/26 18:54:57;;;;;;;12.83;7.10;;;8.40;94.20;;;;;;4972980;28;20474;-79
2023/12/26 18:57:26;;;;;;;13.07;7.20;;;8.40;94.10;;;;;;4975227;28;20522;-80
2023/12/26 18:59:54;;;;;;;10.97;7.27;;;8.40;94.20;;;;;;4975437;28;20435;-79
2023/12/26 19:02:21;;;;;;;14.97;7.30;;;8.40;94.50;;;;;;4973945;28;20450;-80
2023/12/26 19:04:48;;;;;;;17.23;6.70;;;8.40;94.10;;;;;;4971557;28;20944;-80
2023/12/26 19:07:15;;;;;;;16.23;7.50;;;8.40;94.10;;;;;;4975385;28;20455;-81
2023/12/26 19:09:44;;;;;;;16.93;7.03;;;8.40;94.10;;;;;;4975258;28;20802;-80
2023/12/26 19:12:11;;;;;;;17.80;7.57;;;8.40;93.70;;;;;;4974020;28;20457;-80
2023/12/26 19:14:39;;;;;;;18.27;6.70;;;8.40;94.00;;;;;;4972434;28;20487;-79
2023/12/26 19:17:07;;;;;;;14.17;7.03;;;8.40;94.10;;;;;;4975358;28;20451;-79
2023/12/26 19:19:33;;;;;;;12.17;7.53;;;8.30;94.10;;;;;;4975132;28;20458;-79
2023/12/26 19:22:00;;;;;;;14.03;8.53;;;8.30;94.10;;;;;;4974885;28;20473;-79
2023/12/26 19:24:27;;;;;;;12.53;7.53;;;8.30;94.20;;;;;;4972330;28;20462;-79
2023/12/26 19:26:56;;;;;;;14.60;9.00;;;8.20;94.10;;;;;;4974549;28;20458;-79
2023/12/26 19:29:23;;;;;;;13.20;8.80;;;8.20;94.40;;;;;;4974752;28;20486;-79
2023/12/26 19:31:50;;;;;;;13.73;8.73;;;8.10;94.20;;;;;;4974380;28;20459;-79
2023/12/26 19:34:18;;;;;;;18.80;10.70;;;8.10;94.10;;;;;;4972327;28;20514;-79
2023/12/26 19:36:45;;;;;;;26.27;9.67;;;8.10;95.50;;;;;;4974468;28;20454;-79
2023/12/26 19:39:12;;;;;;;13.17;10.50;;;8.10;94.50;;;;;;4975179;28;20861;-79
2023/12/26 19:41:39;;;;;;;19.10;13.80;;;8.00;95.00;;;;;;4976288;28;20454;-79
2023/12/26 19:44:06;;;;;;;17.97;15.67;;;8.00;96.80;;;;;;4975906;28;20573;-79
2023/12/26 19:46:33;;;;;;;16.70;15.20;;;7.90;97.20;;;;;;4978140;28;20463;-79
2023/12/26 19:49:00;;;;;;;26.43;17.13;;;7.80;97.10;;;;;;4978866;28;20451;-79
2023/12/26 19:51:29;;;;;;;23.80;21.67;;;7.70;97.10;;;;;;4978780;28;20481;-79
2023/12/26 19:53:56;;;;;;;31.27;29.27;;;7.50;97.40;;;;;;4975930;28;20466;-78
2023/12/26 19:56:23;;;;;;;44.33;40.63;;;7.30;97.00;;;;;;4978018;28;20480;-79
2023/12/26 19:58:49;;;;;;;55.87;52.67;;;7.20;97.00;;;;;;4978321;28;20462;-79
2023/12/26 20:01:16;;;;;;;83.43;79.67;;;7.10;97.00;;;;;;4978335;28;20454;-79
2023/12/26 20:03:43;;;;;;;115.40;109.97;;;6.90;98.30;;;;;;4975852;28;20465;-79
2023/12/26 20:06:10;;;;;;;171.83;165.03;;;6.90;99.60;;;;;;4976594;28;20461;-79
2023/12/26 20:08:38;;;;;;;212.27;204.50;;;6.90;99.90;;;;;;4978224;28;20949;-79
2023/12/26 20:11:05;;;;;;;254.37;244.27;;;6.90;99.90;;;;;;4978424;28;20463;-79
2023/12/26 20:13:32;;;;;;;279.37;267.87;;;6.90;99.90;;;;;;4975810;28;20468;-79
2023/12/26 20:15:59;;;;;;;280.07;269.47;;;6.90;99.90;;;;;;4976605;28;20494;-78
2023/12/26 20:18:25;;;;;;;283.53;272.27;;;7.00;99.90;;;;;;4978132;28;20454;-78
2023/12/26 20:20:52;;;;;;;285.23;272.80;;;7.00;99.90;;;;;;4978258;28;20489;-78
2023/12/26 20:23:19;;;;;;;266.90;256.40;;;7.10;99.90;;;;;;4974027;28;20463;-79
2023/12/26 20:25:47;;;;;;;245.90;236.20;;;7.10;99.90;;;;;;4976242;28;20453;-78
2023/12/26 20:28:14;;;;;;;239.53;230.63;;;7.20;99.90;;;;;;4977801;28;20455;-79
2023/12/26 20:30:41;;;;;;;225.07;216.80;;;7.20;99.90;;;;;;4978091;28;20457;-78
2023/12/26 20:33:10;;;;;;;194.97;187.30;;;7.20;99.90;;;;;;4976528;28;20451;-74
2023/12/26 20:35:38;;;;;;;198.93;190.83;;;7.30;99.90;;;;;;4975817;28;20481;-75
2023/12/26 20:38:05;;;;;;;185.87;177.80;;;7.30;99.90;;;;;;4978090;28;20887;-74
2023/12/26 20:40:32;;;;;;;177.47;169.67;;;7.30;99.90;;;;;;4978027;28;20805;-74
2023/12/26 20:43:00;;;;;;;163.53;157.17;;;7.20;99.90;;;;;;4975444;28;20519;-74
2023/12/26 20:45:27;;;;;;;159.90;153.47;;;7.20;99.90;;;;;;4974843;28;20446;-74
2023/12/26 20:47:54;;;;;;;164.27;157.67;;;7.10;99.90;;;;;;4977784;28;20821;-74
2023/12/26 20:50:21;;;;;;;177.83;169.83;;;7.00;99.90;;;;;;4977970;28;20453;-74
2023/12/26 20:52:48;;;;;;;186.63;179.23;;;6.90;99.90;;;;;;4974849;28;20816;-74
2023/12/26 20:55:15;;;;;;;206.07;197.57;;;6.80;99.90;;;;;;4974851;28;20844;-74
2023/12/26 20:57:42;;;;;;;242.43;232.63;;;6.60;99.90;;;;;;4977430;28;20476;-74
2023/12/26 21:00:11;;;;;;;274.07;263.47;;;6.50;99.90;;;;;;4977511;28;20453;-74
2023/12/26 21:02:38;;;;;;;284.20;272.83;;;6.50;99.90;;;;;;4976139;28;20489;-74
2023/12/26 21:05:05;;;;;;;289.67;277.03;;;6.40;99.90;;;;;;4974223;28;20450;-74
2023/12/26 21:07:32;;;;;;;324.67;311.07;;;6.30;99.90;;;;;;4977442;28;20449;-74
2023/12/26 21:09:59;;;;;;;359.97;345.07;;;6.30;99.90;;;;;;4977347;28;20857;-74
2023/12/26 21:12:27;;;;;;;385.73;369.60;;;6.30;99.90;;;;;;4976464;28;20459;-74
2023/12/26 21:14:53;;;;;;;384.20;367.77;;;6.20;99.90;;;;;;4974089;28;20489;-74
2023/12/26 21:17:24;;;;;;;402.13;385.30;;;6.20;99.90;;;;;;4977221;28;20462;-74
2023/12/26 21:19:51;;;;;;;413.07;395.07;;;6.20;99.90;;;;;;4977203;28;20440;-74
2023/12/26 21:22:18;;;;;;;412.80;395.30;;;6.20;99.90;;;;;;4976139;28;20457;-74
2023/12/26 21:24:45;;;;;;;432.30;413.37;;;6.20;99.90;;;;;;4974560;28;20953;-74
2023/12/26 21:27:11;;;;;;;452.20;428.70;;;6.30;99.90;;;;;;4976989;28;20458;-74
2023/12/26 21:29:38;;;;;;;434.60;415.57;;;6.30;99.90;;;;;;4976999;28;20458;-74
2023/12/26 21:32:07;;;;;;;431.80;412.80;;;6.40;99.90;;;;;;4976395;28;20460;-74
2023/12/26 21:34:36;;;;;;;433.93;415.67;;;6.50;99.90;;;;;;4973915;28;20459;-74
2023/12/26 21:37:03;;;;;;;421.47;403.07;;;6.50;99.90;;;;;;4976762;28;20455;-74
2023/12/26 21:39:29;;;;;;;416.83;399.40;;;6.60;99.90;;;;;;4976781;28;20456;-74
2023/12/26 21:41:56;;;;;;;419.03;401.27;;;6.60;99.90;;;;;;4976208;28;20460;-74
2023/12/26 21:44:23;;;;;;;409.63;392.23;;;6.70;99.90;;;;;;4974199;28;20453;-77
2023/12/26 21:46:50;;;;;;;396.00;379.10;;;6.70;99.90;;;;;;4976334;28;20459;-74
2023/12/26 21:49:16;;;;;;;388.43;371.97;;;6.70;99.90;;;;;;4976350;28;20457;-74
2023/12/26 21:51:44;;;;;;;378.00;362.50;;;6.70;99.90;;;;;;4975988;28;20950;-74
2023/12/26 21:54:11;;;;;;;365.03;350.27;;;6.70;99.90;;;;;;4973911;28;20462;-74
2023/12/26 21:56:38;;;;;;;367.20;352.30;;;6.70;99.90;;;;;;4975499;28;20482;-74
2023/12/26 21:59:07;;;;;;;370.67;356.27;;;6.60;99.90;;;;;;4976319;28;20467;-74
2023/12/26 22:01:34;;;;;;;369.43;354.33;;;6.60;99.90;;;;;;4976283;28;20553;-76
2023/12/26 22:04:00;;;;;;;371.30;356.33;;;6.60;99.90;;;;;;4973477;28;20823;-74
2023/12/26 22:06:27;;;;;;;370.03;354.03;;;6.60;99.90;;;;;;4975699;28;20462;-74
2023/12/26 22:08:56;;;;;;;362.40;348.30;;;6.60;99.90;;;;;;4976507;28;20458;-74
2023/12/26 22:11:22;;;;;;;384.60;368.53;;;6.50;99.90;;;;;;4975908;28;20548;-74
2023/12/26 22:13:55;;;;;;;395.73;379.77;;;6.50;99.90;;;;;;4973577;28;20466;-74
2023/12/26 22:16:22;;;;;;;383.23;367.33;;;6.40;99.90;;;;;;4975040;28;20995;-74
2023/12/26 22:18:52;;;;;;;414.80;397.63;;;6.30;99.90;;;;;;4975783;28;20954;-74
2023/12/26 22:21:19;;;;;;;421.90;403.47;;;6.20;99.90;;;;;;4976058;28;20438;-74
2023/12/26 22:23:46;;;;;;;425.37;406.47;;;6.10;99.90;;;;;;4973498;28;20452;-74
2023/12/26 22:26:14;;;;;;;423.17;403.87;;;5.90;99.90;;;;;;4974741;28;20454;-74
2023/12/26 22:28:41;;;;;;;420.70;402.27;;;5.80;99.90;;;;;;4975751;28;20457;-74
2023/12/26 22:31:16;;;;;;;441.60;421.30;;;5.60;99.90;;;;;;4976161;28;20454;-74
2023/12/26 22:33:43;;;;;;;471.20;449.40;;;5.60;99.90;;;;;;4973690;28;20460;-74
2023/12/26 22:36:10;;;;;;;473.80;451.33;;;5.50;99.90;;;;;;4974332;28;20483;-74
2023/12/26 22:38:37;;;;;;;486.80;463.40;;;5.50;99.90;;;;;;4975751;28;20560;-77
2023/12/26 22:41:07;;;;;;;480.00;456.17;;;5.40;99.90;;;;;;4975360;28;20959;-76
2023/12/26 22:43:36;;;;;;;488.73;463.77;;;5.40;99.90;;;;;;4973648;28;20558;-76
2023/12/26 22:46:05;;;;;;;505.03;478.47;;;5.30;99.90;;;;;;4973938;28;20463;-76
2023/12/26 22:48:32;;;;;;;503.43;477.53;;;5.30;99.90;;;;;;4975980;28;20951;-76
2023/12/26 22:50:59;;;;;;;508.27;480.57;;;5.30;99.90;;;;;;4975229;28;20455;-76
2023/12/26 22:53:28;;;;;;;497.87;470.77;;;5.30;99.90;;;;;;4973641;28;20470;-76
2023/12/26 22:55:54;;;;;;;509.57;480.17;;;5.20;99.90;;;;;;4973762;28;21063;-76
2023/12/26 22:58:21;;;;;;;506.17;478.27;;;5.20;99.90;;;;;;4975279;28;20464;-76
2023/12/26 23:00:51;;;;;;;502.63;474.80;;;5.20;99.90;;;;;;4975625;28;20464;-76
2023/12/26 23:03:18;;;;;;;506.00;476.43;;;5.20;99.90;;;;;;4973696;28;20882;-76
2023/12/26 23:05:45;;;;;;;504.60;475.23;;;5.20;99.90;;;;;;4973856;28;20858;-76
2023/12/26 23:08:12;;;;;;;501.83;472.47;;;5.20;99.90;;;;;;4975246;28;20451;-76
2023/12/26 23:10:39;;;;;;;494.00;465.33;;;5.20;99.90;;;;;;4974907;28;20952;-76
2023/12/26 23:13:05;;;;;;;499.60;470.83;;;5.30;99.90;;;;;;4973757;28;20458;-76
2023/12/26 23:15:32;;;;;;;501.20;472.80;;;5.30;99.90;;;;;;4972581;28;20493;-76
2023/12/26 23:18:00;;;;;;;501.23;471.83;;;5.20;99.90;;;;;;4974975;28;20451;-76
2023/12/26 23:20:27;;;;;;;502.77;474.37;;;5.20;99.90;;;;;;4975057;28;20455;-76
2023/12/26 23:22:54;;;;;;;506.93;477.97;;;5.20;99.90;;;;;;4973594;28;20451;-76
2023/12/26 23:25:21;;;;;;;502.37;473.93;;;5.20;99.90;;;;;;4973051;28;20489;-76
2023/12/26 23:27:47;;;;;;;510.13;480.47;;;5.10;99.90;;;;;;4975029;28;20459;-76
2023/12/26 23:30:15;;;;;;;508.03;478.60;;;5.10;99.90;;;;;;4975198;28;20457;-76
2023/12/26 23:32:42;;;;;;;518.90;487.97;;;5.10;99.90;;;;;;4973518;28;20960;-76
2023/12/26 23:35:10;;;;;;;528.87;497.80;;;5.10;99.90;;;;;;4972498;28;20455;-76
2023/12/26 23:37:37;;;;;;;525.67;495.37;;;5.20;99.90;;;;;;4974901;28;20483;-76
2023/12/26 23:40:04;;;;;;;520.40;490.40;;;5.20;99.90;;;;;;4974607;28;20448;-76
2023/12/26 23:42:31;;;;;;;517.13;487.67;;;5.20;99.90;;;;;;4973894;28;20770;-76
2023/12/26 23:44:58;;;;;;;519.03;489.53;;;5.10;99.90;;;;;;4972275;28;20455;-76
2023/12/26 23:47:26;;;;;;;527.63;497.23;;;5.00;99.90;;;;;;4974823;28;20539;-76
2023/12/26 23:49:52;;;;;;;540.53;509.63;;;4.90;99.90;;;;;;4974788;28;20452;-76
2023/12/26 23:52:21;;;;;;;561.63;529.37;;;4.90;99.90;;;;;;4974015;28;20482;-76
2023/12/26 23:54:47;;;;;;;566.40;533.50;;;4.80;99.90;;;;;;4972056;28;20456;-76
2023/12/26 23:57:14;;;;;;;556.83;523.00;;;4.80;99.90;;;;;;4974512;28;20831;-76
2023/12/26 23:59:41;;;;;;;559.10;526.50;;;4.80;99.90;;;;;;4974734;28;20442;-76
